sensor_id;sensor_type;location;lat;lon;timestamp;noise_LAeq;noise_LA_min;noise_LA_max;noise_LA01;noise_LA95
69670;Laerm;66535;52.370;4.832;2023-10-19T00:00:19;51.19;46.99;59.75;;
69670;Laerm;66535;52.370;4.832;2023-10-19T00:00:51;48.74;45.79;65.92;;
69670;Laerm;66535;52.370;4.832;2023-10-19T00:01:22;49.78;45.92;62.90;;
69670;Laerm;66535;52.370;4.832;2023-10-19T00:01:57;53.94;50.30;57.64;;
69670;Laerm;66535;52.370;4.832;2023-10-19T00:02:29;53.62;50.24;59.19;;
69670;Laerm;66535;52.370;4.832;2023-10-19T00:03:02;55.37;52.35;59.92;;
69670;Laerm;66535;52.370;4.832;2023-10-19T00:03:34;58.19;51.89;84.84;;
69670;Laerm;66535;52.370;4.832;2023-10-19T00:04:06;52.90;50.11;58.49;;
69670;Laerm;66535;52.370;4.832;2023-10-19T00:04:38;52.95;49.46;66.64;;
69670;Laerm;66535;52.370;4.832;2023-10-19T00:05:11;54.34;51.06;60.52;;
69670;Laerm;66535;52.370;4.832;2023-10-19T00:05:44;52.98;50.84;60.95;;
69670;Laerm;66535;52.370;4.832;2023-10-19T00:06:16;53.21;49.62;60.00;;
69670;Laerm;66535;52.370;4.832;2023-10-19T00:06:49;49.63;45.64;59.80;;
69670;Laerm;66535;52.370;4.832;2023-10-19T00:07:20;54.32;48.15;68.13;;
69670;Laerm;66535;52.370;4.832;2023-10-19T00:07:51;51.89;47.86;56.86;;
69670;Laerm;66535;52.370;4.832;2023-10-19T00:08:24;51.81;47.22;55.45;;
69670;Laerm;66535;52.370;4.832;2023-10-19T00:08:55;52.12;49.61;55.83;;
69670;Laerm;66535;52.370;4.832;2023-10-19T00:09:27;51.89;48.68;57.29;;
69670;Laerm;66535;52.370;4.832;2023-10-19T00:10:07;54.15;49.86;63.75;;
69670;Laerm;66535;52.370;4.832;2023-10-19T00:10:41;53.44;50.37;59.54;;
69670;Laerm;66535;52.370;4.832;2023-10-19T00:11:13;52.60;49.08;58.78;;
69670;Laerm;66535;52.370;4.832;2023-10-19T00:11:52;51.22;48.35;62.96;;
69670;Laerm;66535;52.370;4.832;2023-10-19T00:12:24;52.90;47.96;59.10;;
69670;Laerm;66535;52.370;4.832;2023-10-19T00:12:56;53.60;50.67;60.62;;
69670;Laerm;66535;52.370;4.832;2023-10-19T00:13:31;51.72;48.13;58.83;;
69670;Laerm;66535;52.370;4.832;2023-10-19T00:14:02;55.63;51.58;59.83;;
69670;Laerm;66535;52.370;4.832;2023-10-19T00:14:34;53.98;50.09;59.48;;
69670;Laerm;66535;52.370;4.832;2023-10-19T00:15:06;53.12;50.42;65.41;;
69670;Laerm;66535;52.370;4.832;2023-10-19T00:15:41;53.53;49.86;60.53;;
69670;Laerm;66535;52.370;4.832;2023-10-19T00:16:18;50.98;48.10;61.24;;
69670;Laerm;66535;52.370;4.832;2023-10-19T00:16:53;52.67;49.50;57.57;;
69670;Laerm;66535;52.370;4.832;2023-10-19T00:17:27;52.03;48.91;60.43;;
69670;Laerm;66535;52.370;4.832;2023-10-19T00:18:00;51.28;49.01;60.24;;
69670;Laerm;66535;52.370;4.832;2023-10-19T00:18:50;50.64;47.19;56.47;;
69670;Laerm;66535;52.370;4.832;2023-10-19T00:19:23;52.05;48.63;56.43;;
69670;Laerm;66535;52.370;4.832;2023-10-19T00:19:58;53.29;49.23;60.05;;
69670;Laerm;66535;52.370;4.832;2023-10-19T00:20:56;55.30;50.49;79.06;;
69670;Laerm;66535;52.370;4.832;2023-10-19T00:21:30;52.90;48.75;63.76;;
69670;Laerm;66535;52.370;4.832;2023-10-19T00:22:19;50.50;47.55;60.59;;
69670;Laerm;66535;52.370;4.832;2023-10-19T00:22:52;55.60;50.04;59.13;;
69670;Laerm;66535;52.370;4.832;2023-10-19T00:23:25;50.18;47.22;56.82;;
69670;Laerm;66535;52.370;4.832;2023-10-19T00:23:59;51.50;48.40;57.54;;
69670;Laerm;66535;52.370;4.832;2023-10-19T00:24:35;55.17;50.33;62.32;;
69670;Laerm;66535;52.370;4.832;2023-10-19T00:25:07;52.42;49.28;61.66;;
69670;Laerm;66535;52.370;4.832;2023-10-19T00:25:44;49.78;46.26;60.03;;
69670;Laerm;66535;52.370;4.832;2023-10-19T00:26:21;51.45;47.60;58.83;;
69670;Laerm;66535;52.370;4.832;2023-10-19T00:26:56;49.75;46.97;64.25;;
69670;Laerm;66535;52.370;4.832;2023-10-19T00:27:27;50.51;47.56;67.05;;
69670;Laerm;66535;52.370;4.832;2023-10-19T00:27:59;50.00;47.36;54.53;;
69670;Laerm;66535;52.370;4.832;2023-10-19T00:28:32;51.65;48.70;57.31;;
69670;Laerm;66535;52.370;4.832;2023-10-19T00:29:06;51.26;46.68;58.93;;
69670;Laerm;66535;52.370;4.832;2023-10-19T00:29:49;51.69;48.02;56.94;;
69670;Laerm;66535;52.370;4.832;2023-10-19T00:30:20;50.58;46.93;58.13;;
69670;Laerm;66535;52.370;4.832;2023-10-19T00:30:54;48.90;46.24;65.45;;
69670;Laerm;66535;52.370;4.832;2023-10-19T00:31:34;50.01;47.52;67.71;;
69670;Laerm;66535;52.370;4.832;2023-10-19T00:32:10;51.81;48.95;56.30;;
69670;Laerm;66535;52.370;4.832;2023-10-19T00:32:45;53.38;51.10;59.21;;
69670;Laerm;66535;52.370;4.832;2023-10-19T00:33:17;54.07;50.78;59.00;;
69670;Laerm;66535;52.370;4.832;2023-10-19T00:33:49;53.04;49.83;70.65;;
69670;Laerm;66535;52.370;4.832;2023-10-19T00:34:22;51.50;49.01;58.84;;
69670;Laerm;66535;52.370;4.832;2023-10-19T00:34:53;50.42;47.40;55.07;;
69670;Laerm;66535;52.370;4.832;2023-10-19T00:35:26;50.37;46.84;57.06;;
69670;Laerm;66535;52.370;4.832;2023-10-19T00:36:05;49.25;46.38;59.98;;
69670;Laerm;66535;52.370;4.832;2023-10-19T00:36:38;50.58;47.99;54.97;;
69670;Laerm;66535;52.370;4.832;2023-10-19T00:37:10;50.48;45.36;72.23;;
69670;Laerm;66535;52.370;4.832;2023-10-19T00:37:43;49.51;47.14;61.96;;
69670;Laerm;66535;52.370;4.832;2023-10-19T00:38:15;50.99;47.59;59.71;;
69670;Laerm;66535;52.370;4.832;2023-10-19T00:38:58;49.50;43.77;56.60;;
69670;Laerm;66535;52.370;4.832;2023-10-19T00:39:31;46.65;43.61;66.21;;
69670;Laerm;66535;52.370;4.832;2023-10-19T00:40:12;45.47;42.62;59.76;;
69670;Laerm;66535;52.370;4.832;2023-10-19T00:40:50;49.76;46.17;54.98;;
69670;Laerm;66535;52.370;4.832;2023-10-19T00:41:25;49.17;44.78;56.88;;
69670;Laerm;66535;52.370;4.832;2023-10-19T00:42:00;46.56;44.27;55.69;;
69670;Laerm;66535;52.370;4.832;2023-10-19T00:42:33;48.24;44.68;70.17;;
69670;Laerm;66535;52.370;4.832;2023-10-19T00:43:11;47.34;43.98;58.47;;
69670;Laerm;66535;52.370;4.832;2023-10-19T00:43:43;51.13;47.33;66.08;;
69670;Laerm;66535;52.370;4.832;2023-10-19T00:44:16;51.65;48.62;56.93;;
69670;Laerm;66535;52.370;4.832;2023-10-19T00:44:53;52.28;49.28;57.38;;
69670;Laerm;66535;52.370;4.832;2023-10-19T00:45:32;51.37;48.63;63.05;;
69670;Laerm;66535;52.370;4.832;2023-10-19T00:46:04;50.33;48.19;62.53;;
69670;Laerm;66535;52.370;4.832;2023-10-19T00:46:40;49.76;46.65;55.98;;
69670;Laerm;66535;52.370;4.832;2023-10-19T00:47:14;51.05;46.81;57.19;;
69670;Laerm;66535;52.370;4.832;2023-10-19T00:47:46;49.18;46.34;59.32;;
69670;Laerm;66535;52.370;4.832;2023-10-19T00:48:21;47.78;44.42;57.07;;
69670;Laerm;66535;52.370;4.832;2023-10-19T00:48:58;47.60;43.73;66.66;;
69670;Laerm;66535;52.370;4.832;2023-10-19T00:49:30;45.59;42.89;56.11;;
69670;Laerm;66535;52.370;4.832;2023-10-19T00:50:01;50.52;44.57;56.18;;
69670;Laerm;66535;52.370;4.832;2023-10-19T00:50:36;48.29;43.67;66.59;;
69670;Laerm;66535;52.370;4.832;2023-10-19T00:51:07;47.21;42.88;66.26;;
69670;Laerm;66535;52.370;4.832;2023-10-19T00:51:42;47.20;43.35;60.19;;
69670;Laerm;66535;52.370;4.832;2023-10-19T00:52:24;51.43;43.24;66.88;;
69670;Laerm;66535;52.370;4.832;2023-10-19T00:52:56;53.69;45.74;64.31;;
69670;Laerm;66535;52.370;4.832;2023-10-19T00:53:28;48.09;45.06;60.76;;
69670;Laerm;66535;52.370;4.832;2023-10-19T00:54:02;49.80;44.44;70.72;;
69670;Laerm;66535;52.370;4.832;2023-10-19T00:54:39;49.49;43.97;74.82;;
69670;Laerm;66535;52.370;4.832;2023-10-19T00:55:13;45.71;42.30;57.58;;
69670;Laerm;66535;52.370;4.832;2023-10-19T00:55:45;46.57;43.79;58.63;;
69670;Laerm;66535;52.370;4.832;2023-10-19T00:56:16;47.75;44.45;62.78;;
69670;Laerm;66535;52.370;4.832;2023-10-19T00:56:50;48.70;45.12;60.93;;
69670;Laerm;66535;52.370;4.832;2023-10-19T00:57:22;47.64;44.08;60.43;;
69670;Laerm;66535;52.370;4.832;2023-10-19T00:58:04;48.47;45.72;65.29;;
69670;Laerm;66535;52.370;4.832;2023-10-19T00:58:41;48.91;44.98;72.12;;
69670;Laerm;66535;52.370;4.832;2023-10-19T00:59:13;50.07;45.77;60.40;;
69670;Laerm;66535;52.370;4.832;2023-10-19T00:59:45;50.98;45.43;68.44;;
69670;Laerm;66535;52.370;4.832;2023-10-19T01:00:19;50.67;45.26;61.65;;
69670;Laerm;66535;52.370;4.832;2023-10-19T01:01:01;50.22;44.82;66.04;;
69670;Laerm;66535;52.370;4.832;2023-10-19T01:01:36;48.39;45.29;70.82;;
69670;Laerm;66535;52.370;4.832;2023-10-19T01:02:14;48.91;45.63;63.91;;
69670;Laerm;66535;52.370;4.832;2023-10-19T01:02:52;48.21;44.66;60.40;;
69670;Laerm;66535;52.370;4.832;2023-10-19T01:03:30;48.83;45.03;58.55;;
69670;Laerm;66535;52.370;4.832;2023-10-19T01:04:06;46.74;43.22;66.98;;
69670;Laerm;66535;52.370;4.832;2023-10-19T01:04:38;45.93;43.09;57.36;;
69670;Laerm;66535;52.370;4.832;2023-10-19T01:05:13;48.54;43.19;58.88;;
69670;Laerm;66535;52.370;4.832;2023-10-19T01:05:44;46.56;43.36;58.82;;
69670;Laerm;66535;52.370;4.832;2023-10-19T01:06:19;48.66;46.12;62.32;;
69670;Laerm;66535;52.370;4.832;2023-10-19T01:06:51;51.08;48.44;58.44;;
69670;Laerm;66535;52.370;4.832;2023-10-19T01:07:36;52.20;48.03;69.88;;
69670;Laerm;66535;52.370;4.832;2023-10-19T01:08:09;49.82;45.78;65.59;;
69670;Laerm;66535;52.370;4.832;2023-10-19T01:08:50;49.34;44.53;70.23;;
69670;Laerm;66535;52.370;4.832;2023-10-19T01:09:23;49.24;45.02;59.07;;
69670;Laerm;66535;52.370;4.832;2023-10-19T01:09:59;51.51;46.15;60.44;;
69670;Laerm;66535;52.370;4.832;2023-10-19T01:10:31;52.47;46.96;57.90;;
69670;Laerm;66535;52.370;4.832;2023-10-19T01:11:03;49.28;46.19;59.50;;
69670;Laerm;66535;52.370;4.832;2023-10-19T01:11:35;48.57;43.56;69.82;;
69670;Laerm;66535;52.370;4.832;2023-10-19T01:12:07;46.25;43.13;56.90;;
69670;Laerm;66535;52.370;4.832;2023-10-19T01:12:55;50.10;45.12;75.28;;
69670;Laerm;66535;52.370;4.832;2023-10-19T01:13:31;50.08;46.47;66.44;;
69670;Laerm;66535;52.370;4.832;2023-10-19T01:14:19;48.94;44.59;70.31;;
69670;Laerm;66535;52.370;4.832;2023-10-19T01:15:01;47.55;43.14;59.28;;
69670;Laerm;66535;52.370;4.832;2023-10-19T01:15:37;50.18;45.50;61.61;;
69670;Laerm;66535;52.370;4.832;2023-10-19T01:16:11;46.99;43.74;59.36;;
69670;Laerm;66535;52.370;4.832;2023-10-19T01:16:46;48.32;45.86;61.72;;
69670;Laerm;66535;52.370;4.832;2023-10-19T01:17:19;49.42;44.86;72.69;;
69670;Laerm;66535;52.370;4.832;2023-10-19T01:17:51;47.42;44.37;61.31;;
69670;Laerm;66535;52.370;4.832;2023-10-19T01:18:23;47.79;45.55;55.99;;
69670;Laerm;66535;52.370;4.832;2023-10-19T01:19:00;48.47;44.53;69.46;;
69670;Laerm;66535;52.370;4.832;2023-10-19T01:19:36;47.00;43.93;60.55;;
69670;Laerm;66535;52.370;4.832;2023-10-19T01:20:13;46.66;44.20;62.25;;
69670;Laerm;66535;52.370;4.832;2023-10-19T01:20:51;49.96;44.54;63.95;;
69670;Laerm;66535;52.370;4.832;2023-10-19T01:21:25;49.01;45.31;57.90;;
69670;Laerm;66535;52.370;4.832;2023-10-19T01:22:06;47.72;44.81;60.67;;
69670;Laerm;66535;52.370;4.832;2023-10-19T01:22:47;48.97;45.26;57.22;;
69670;Laerm;66535;52.370;4.832;2023-10-19T01:23:19;49.86;45.70;56.69;;
69670;Laerm;66535;52.370;4.832;2023-10-19T01:23:56;47.97;45.06;59.94;;
69670;Laerm;66535;52.370;4.832;2023-10-19T01:24:29;49.10;45.65;65.87;;
69670;Laerm;66535;52.370;4.832;2023-10-19T01:25:11;48.62;44.68;59.99;;
69670;Laerm;66535;52.370;4.832;2023-10-19T01:25:43;47.34;44.45;57.31;;
69670;Laerm;66535;52.370;4.832;2023-10-19T01:26:20;50.20;45.67;63.79;;
69670;Laerm;66535;52.370;4.832;2023-10-19T01:26:57;49.18;45.13;55.90;;
69670;Laerm;66535;52.370;4.832;2023-10-19T01:27:30;48.81;45.00;64.69;;
69670;Laerm;66535;52.370;4.832;2023-10-19T01:28:06;47.56;43.33;68.28;;
69670;Laerm;66535;52.370;4.832;2023-10-19T01:28:38;46.58;42.63;67.02;;
69670;Laerm;66535;52.370;4.832;2023-10-19T01:29:18;45.49;42.42;64.44;;
69670;Laerm;66535;52.370;4.832;2023-10-19T01:29:58;46.64;42.56;63.39;;
69670;Laerm;66535;52.370;4.832;2023-10-19T01:30:32;45.17;41.38;59.59;;
69670;Laerm;66535;52.370;4.832;2023-10-19T01:31:04;44.05;41.66;56.72;;
69670;Laerm;66535;52.370;4.832;2023-10-19T01:31:39;44.85;42.03;60.47;;
69670;Laerm;66535;52.370;4.832;2023-10-19T01:32:22;47.78;42.99;66.50;;
69670;Laerm;66535;52.370;4.832;2023-10-19T01:32:53;47.16;43.12;64.85;;
69670;Laerm;66535;52.370;4.832;2023-10-19T01:33:25;48.74;43.78;58.45;;
69670;Laerm;66535;52.370;4.832;2023-10-19T01:33:59;49.33;44.10;65.82;;
69670;Laerm;66535;52.370;4.832;2023-10-19T01:34:36;49.85;45.45;61.12;;
69670;Laerm;66535;52.370;4.832;2023-10-19T01:35:08;49.58;46.67;60.84;;
69670;Laerm;66535;52.370;4.832;2023-10-19T01:35:39;49.20;47.26;57.27;;
69670;Laerm;66535;52.370;4.832;2023-10-19T01:36:25;51.54;46.46;59.11;;
69670;Laerm;66535;52.370;4.832;2023-10-19T01:36:57;47.87;43.95;58.39;;
69670;Laerm;66535;52.370;4.832;2023-10-19T01:37:33;47.13;43.71;64.78;;
69670;Laerm;66535;52.370;4.832;2023-10-19T01:38:10;45.87;42.49;60.32;;
69670;Laerm;66535;52.370;4.832;2023-10-19T01:38:41;48.96;43.86;58.71;;
69670;Laerm;66535;52.370;4.832;2023-10-19T01:39:12;45.76;42.29;56.60;;
69670;Laerm;66535;52.370;4.832;2023-10-19T01:39:44;46.96;43.62;58.46;;
69670;Laerm;66535;52.370;4.832;2023-10-19T01:40:16;47.13;44.04;59.10;;
69670;Laerm;66535;52.370;4.832;2023-10-19T01:40:51;47.66;43.78;59.86;;
69670;Laerm;66535;52.370;4.832;2023-10-19T01:41:25;48.66;43.68;63.44;;
69670;Laerm;66535;52.370;4.832;2023-10-19T01:41:57;48.92;44.77;60.69;;
69670;Laerm;66535;52.370;4.832;2023-10-19T01:42:28;47.89;44.68;53.26;;
69670;Laerm;66535;52.370;4.832;2023-10-19T01:43:01;53.95;47.12;70.65;;
69670;Laerm;66535;52.370;4.832;2023-10-19T01:43:33;51.50;47.35;74.24;;
69670;Laerm;66535;52.370;4.832;2023-10-19T01:44:05;48.89;45.89;56.05;;
69670;Laerm;66535;52.370;4.832;2023-10-19T01:44:38;49.73;46.09;70.92;;
69670;Laerm;66535;52.370;4.832;2023-10-19T01:45:10;48.90;44.13;61.70;;
69670;Laerm;66535;52.370;4.832;2023-10-19T01:45:42;48.14;43.86;66.74;;
69670;Laerm;66535;52.370;4.832;2023-10-19T01:46:15;48.50;42.09;58.73;;
69670;Laerm;66535;52.370;4.832;2023-10-19T01:46:52;45.12;41.61;66.86;;
69670;Laerm;66535;52.370;4.832;2023-10-19T01:47:23;46.82;41.59;66.67;;
69670;Laerm;66535;52.370;4.832;2023-10-19T01:47:56;45.28;42.48;56.70;;
69670;Laerm;66535;52.370;4.832;2023-10-19T01:48:31;53.97;43.21;82.49;;
69670;Laerm;66535;52.370;4.832;2023-10-19T01:49:04;48.93;43.08;57.21;;
69670;Laerm;66535;52.370;4.832;2023-10-19T01:49:36;47.96;44.01;59.09;;
69670;Laerm;66535;52.370;4.832;2023-10-19T01:50:08;46.72;43.45;64.07;;
69670;Laerm;66535;52.370;4.832;2023-10-19T01:50:50;46.93;42.40;67.11;;
69670;Laerm;66535;52.370;4.832;2023-10-19T01:51:23;47.22;43.74;59.60;;
69670;Laerm;66535;52.370;4.832;2023-10-19T01:51:55;50.12;44.15;62.60;;
69670;Laerm;66535;52.370;4.832;2023-10-19T01:52:27;49.01;43.63;63.52;;
69670;Laerm;66535;52.370;4.832;2023-10-19T01:52:58;55.81;46.50;63.86;;
69670;Laerm;66535;52.370;4.832;2023-10-19T01:53:33;49.52;43.29;76.02;;
69670;Laerm;66535;52.370;4.832;2023-10-19T01:54:05;46.24;43.23;61.70;;
69670;Laerm;66535;52.370;4.832;2023-10-19T01:54:38;47.64;44.56;61.24;;
69670;Laerm;66535;52.370;4.832;2023-10-19T01:55:10;48.12;44.76;62.22;;
69670;Laerm;66535;52.370;4.832;2023-10-19T01:55:44;49.42;45.60;68.05;;
69670;Laerm;66535;52.370;4.832;2023-10-19T01:56:18;47.52;44.98;59.70;;
69670;Laerm;66535;52.370;4.832;2023-10-19T01:56:50;46.31;43.20;59.63;;
69670;Laerm;66535;52.370;4.832;2023-10-19T01:57:25;46.36;41.59;63.11;;
69670;Laerm;66535;52.370;4.832;2023-10-19T01:57:56;45.80;42.98;61.12;;
69670;Laerm;66535;52.370;4.832;2023-10-19T01:58:27;47.95;43.20;61.33;;
69670;Laerm;66535;52.370;4.832;2023-10-19T01:58:59;47.10;43.24;62.23;;
69670;Laerm;66535;52.370;4.832;2023-10-19T01:59:30;47.50;42.88;57.31;;
69670;Laerm;66535;52.370;4.832;2023-10-19T02:00:01;49.75;45.31;63.61;;
69670;Laerm;66535;52.370;4.832;2023-10-19T02:00:41;48.13;43.87;64.36;;
69670;Laerm;66535;52.370;4.832;2023-10-19T02:01:15;52.59;48.60;68.95;;
69670;Laerm;66535;52.370;4.832;2023-10-19T02:01:51;50.31;46.97;55.05;;
69670;Laerm;66535;52.370;4.832;2023-10-19T02:02:22;48.52;45.64;57.65;;
69670;Laerm;66535;52.370;4.832;2023-10-19T02:02:54;48.92;45.65;62.63;;
69670;Laerm;66535;52.370;4.832;2023-10-19T02:03:25;49.56;46.28;57.06;;
69670;Laerm;66535;52.370;4.832;2023-10-19T02:04:00;50.06;45.17;70.07;;
69670;Laerm;66535;52.370;4.832;2023-10-19T02:04:34;48.30;45.33;58.67;;
69670;Laerm;66535;52.370;4.832;2023-10-19T02:05:07;47.69;45.23;58.67;;
69670;Laerm;66535;52.370;4.832;2023-10-19T02:05:44;51.18;45.78;68.86;;
69670;Laerm;66535;52.370;4.832;2023-10-19T02:06:20;47.70;44.17;58.87;;
69670;Laerm;66535;52.370;4.832;2023-10-19T02:06:52;45.27;42.28;63.04;;
69670;Laerm;66535;52.370;4.832;2023-10-19T02:07:24;47.85;43.46;67.74;;
69670;Laerm;66535;52.370;4.832;2023-10-19T02:07:56;47.21;44.13;57.54;;
69670;Laerm;66535;52.370;4.832;2023-10-19T02:08:27;47.68;43.76;58.03;;
69670;Laerm;66535;52.370;4.832;2023-10-19T02:09:01;46.39;43.69;55.91;;
69670;Laerm;66535;52.370;4.832;2023-10-19T02:09:39;45.80;42.36;64.24;;
69670;Laerm;66535;52.370;4.832;2023-10-19T02:10:12;51.93;43.16;58.57;;
69670;Laerm;66535;52.370;4.832;2023-10-19T02:10:46;46.76;42.79;56.52;;
69670;Laerm;66535;52.370;4.832;2023-10-19T02:11:19;45.44;42.26;59.40;;
69670;Laerm;66535;52.370;4.832;2023-10-19T02:11:53;46.34;43.28;56.17;;
69670;Laerm;66535;52.370;4.832;2023-10-19T02:12:26;45.37;42.31;56.50;;
69670;Laerm;66535;52.370;4.832;2023-10-19T02:12:57;43.86;40.78;57.42;;
69670;Laerm;66535;52.370;4.832;2023-10-19T02:13:29;43.17;39.66;59.02;;
69670;Laerm;66535;52.370;4.832;2023-10-19T02:14:01;45.22;40.78;55.36;;
69670;Laerm;66535;52.370;4.832;2023-10-19T02:14:35;44.80;42.52;55.55;;
69670;Laerm;66535;52.370;4.832;2023-10-19T02:15:08;46.55;43.53;56.99;;
69670;Laerm;66535;52.370;4.832;2023-10-19T02:15:39;46.86;43.65;63.70;;
69670;Laerm;66535;52.370;4.832;2023-10-19T02:16:10;45.42;43.08;53.61;;
69670;Laerm;66535;52.370;4.832;2023-10-19T02:16:43;45.48;43.12;57.97;;
69670;Laerm;66535;52.370;4.832;2023-10-19T02:17:14;45.24;42.62;54.02;;
69670;Laerm;66535;52.370;4.832;2023-10-19T02:17:46;45.85;42.53;58.27;;
69670;Laerm;66535;52.370;4.832;2023-10-19T02:18:18;47.32;42.98;58.98;;
69670;Laerm;66535;52.370;4.832;2023-10-19T02:18:49;47.97;43.48;57.38;;
69670;Laerm;66535;52.370;4.832;2023-10-19T02:19:23;45.14;42.14;57.52;;
69670;Laerm;66535;52.370;4.832;2023-10-19T02:19:55;46.92;43.63;62.55;;
69670;Laerm;66535;52.370;4.832;2023-10-19T02:20:26;48.92;43.40;60.28;;
69670;Laerm;66535;52.370;4.832;2023-10-19T02:20:58;44.95;41.70;62.03;;
69670;Laerm;66535;52.370;4.832;2023-10-19T02:21:29;45.21;42.01;57.19;;
69670;Laerm;66535;52.370;4.832;2023-10-19T02:22:02;45.81;42.06;63.55;;
69670;Laerm;66535;52.370;4.832;2023-10-19T02:22:36;46.41;41.83;60.98;;
69670;Laerm;66535;52.370;4.832;2023-10-19T02:23:08;46.95;42.26;57.65;;
69670;Laerm;66535;52.370;4.832;2023-10-19T02:23:39;47.18;43.86;55.72;;
69670;Laerm;66535;52.370;4.832;2023-10-19T02:24:12;47.42;43.65;66.71;;
69670;Laerm;66535;52.370;4.832;2023-10-19T02:24:45;46.46;42.49;63.57;;
69670;Laerm;66535;52.370;4.832;2023-10-19T02:25:16;47.07;42.97;54.36;;
69670;Laerm;66535;52.370;4.832;2023-10-19T02:25:48;45.56;42.79;60.47;;
69670;Laerm;66535;52.370;4.832;2023-10-19T02:26:21;46.50;41.89;57.01;;
69670;Laerm;66535;52.370;4.832;2023-10-19T02:26:55;46.68;42.44;60.90;;
69670;Laerm;66535;52.370;4.832;2023-10-19T02:27:26;45.51;42.37;64.78;;
69670;Laerm;66535;52.370;4.832;2023-10-19T02:27:58;45.15;42.32;58.91;;
69670;Laerm;66535;52.370;4.832;2023-10-19T02:28:29;47.46;43.17;65.60;;
69670;Laerm;66535;52.370;4.832;2023-10-19T02:29:10;46.60;42.30;68.11;;
69670;Laerm;66535;52.370;4.832;2023-10-19T02:29:43;46.34;43.66;55.81;;
69670;Laerm;66535;52.370;4.832;2023-10-19T02:30:15;46.88;43.20;56.92;;
69670;Laerm;66535;52.370;4.832;2023-10-19T02:30:48;45.53;42.17;62.14;;
69670;Laerm;66535;52.370;4.832;2023-10-19T02:31:20;44.02;40.67;58.21;;
69670;Laerm;66535;52.370;4.832;2023-10-19T02:31:52;47.11;40.92;67.00;;
69670;Laerm;66535;52.370;4.832;2023-10-19T02:32:24;48.61;43.43;60.29;;
69670;Laerm;66535;52.370;4.832;2023-10-19T02:32:57;44.75;40.74;61.31;;
69670;Laerm;66535;52.370;4.832;2023-10-19T02:33:28;44.72;40.94;63.07;;
69670;Laerm;66535;52.370;4.832;2023-10-19T02:34:00;46.22;42.09;59.76;;
69670;Laerm;66535;52.370;4.832;2023-10-19T02:34:32;47.65;42.71;55.86;;
69670;Laerm;66535;52.370;4.832;2023-10-19T02:35:03;46.99;42.87;61.39;;
69670;Laerm;66535;52.370;4.832;2023-10-19T02:35:35;44.98;41.52;57.45;;
69670;Laerm;66535;52.370;4.832;2023-10-19T02:36:08;46.39;43.48;67.22;;
69670;Laerm;66535;52.370;4.832;2023-10-19T02:36:44;44.48;41.82;59.02;;
69670;Laerm;66535;52.370;4.832;2023-10-19T02:37:15;45.92;42.70;64.76;;
69670;Laerm;66535;52.370;4.832;2023-10-19T02:37:47;45.96;41.67;55.11;;
69670;Laerm;66535;52.370;4.832;2023-10-19T02:38:18;45.90;43.07;60.81;;
69670;Laerm;66535;52.370;4.832;2023-10-19T02:38:49;49.89;43.95;64.59;;
69670;Laerm;66535;52.370;4.832;2023-10-19T02:39:24;46.73;42.35;66.51;;
69670;Laerm;66535;52.370;4.832;2023-10-19T02:39:59;48.06;42.94;59.09;;
69670;Laerm;66535;52.370;4.832;2023-10-19T02:40:31;45.91;41.80;68.25;;
69670;Laerm;66535;52.370;4.832;2023-10-19T02:41:02;44.62;41.58;59.29;;
69670;Laerm;66535;52.370;4.832;2023-10-19T02:41:34;44.67;41.97;61.41;;
69670;Laerm;66535;52.370;4.832;2023-10-19T02:42:06;43.91;41.91;53.61;;
69670;Laerm;66535;52.370;4.832;2023-10-19T02:42:39;47.27;42.68;63.22;;
69670;Laerm;66535;52.370;4.832;2023-10-19T02:43:10;48.40;42.01;58.66;;
69670;Laerm;66535;52.370;4.832;2023-10-19T02:43:42;44.84;41.68;61.41;;
69670;Laerm;66535;52.370;4.832;2023-10-19T02:44:17;44.11;40.66;58.52;;
69670;Laerm;66535;52.370;4.832;2023-10-19T02:44:53;45.64;41.12;56.69;;
69670;Laerm;66535;52.370;4.832;2023-10-19T02:45:25;43.71;40.60;56.76;;
69670;Laerm;66535;52.370;4.832;2023-10-19T02:46:01;44.95;41.52;61.91;;
69670;Laerm;66535;52.370;4.832;2023-10-19T02:46:34;44.15;42.09;52.58;;
69670;Laerm;66535;52.370;4.832;2023-10-19T02:47:09;44.99;41.96;50.75;;
69670;Laerm;66535;52.370;4.832;2023-10-19T02:47:41;43.85;41.51;59.62;;
69670;Laerm;66535;52.370;4.832;2023-10-19T02:48:13;43.49;40.35;59.25;;
69670;Laerm;66535;52.370;4.832;2023-10-19T02:48:45;44.69;42.10;61.28;;
69670;Laerm;66535;52.370;4.832;2023-10-19T02:49:19;45.21;42.69;64.23;;
69670;Laerm;66535;52.370;4.832;2023-10-19T02:49:51;47.88;43.24;58.08;;
69670;Laerm;66535;52.370;4.832;2023-10-19T02:50:26;45.87;42.04;60.35;;
69670;Laerm;66535;52.370;4.832;2023-10-19T02:50:57;45.50;42.19;55.66;;
69670;Laerm;66535;52.370;4.832;2023-10-19T02:51:37;46.54;42.45;55.85;;
69670;Laerm;66535;52.370;4.832;2023-10-19T02:52:09;44.66;42.12;56.14;;
69670;Laerm;66535;52.370;4.832;2023-10-19T02:52:43;43.56;41.26;59.50;;
69670;Laerm;66535;52.370;4.832;2023-10-19T02:53:15;44.21;41.12;52.76;;
69670;Laerm;66535;52.370;4.832;2023-10-19T02:53:46;44.69;41.57;57.87;;
69670;Laerm;66535;52.370;4.832;2023-10-19T02:54:18;51.29;43.52;58.06;;
69670;Laerm;66535;52.370;4.832;2023-10-19T02:54:52;48.41;43.44;57.87;;
69670;Laerm;66535;52.370;4.832;2023-10-19T02:55:27;47.17;43.29;59.57;;
69670;Laerm;66535;52.370;4.832;2023-10-19T02:55:58;44.71;42.82;58.56;;
69670;Laerm;66535;52.370;4.832;2023-10-19T02:56:33;45.65;42.99;55.19;;
69670;Laerm;66535;52.370;4.832;2023-10-19T02:57:06;45.59;42.93;56.04;;
69670;Laerm;66535;52.370;4.832;2023-10-19T02:57:40;45.83;42.71;60.18;;
69670;Laerm;66535;52.370;4.832;2023-10-19T02:58:11;44.81;42.46;60.46;;
69670;Laerm;66535;52.370;4.832;2023-10-19T02:58:44;44.20;42.17;53.45;;
69670;Laerm;66535;52.370;4.832;2023-10-19T02:59:20;43.67;40.90;55.46;;
69670;Laerm;66535;52.370;4.832;2023-10-19T02:59:53;47.12;42.94;55.37;;
69670;Laerm;66535;52.370;4.832;2023-10-19T03:00:24;45.96;42.94;56.70;;
69670;Laerm;66535;52.370;4.832;2023-10-19T03:01:12;45.62;41.86;67.71;;
69670;Laerm;66535;52.370;4.832;2023-10-19T03:01:45;45.82;42.90;53.66;;
69670;Laerm;66535;52.370;4.832;2023-10-19T03:02:16;45.81;42.02;55.10;;
69670;Laerm;66535;52.370;4.832;2023-10-19T03:02:48;45.76;43.05;54.73;;
69670;Laerm;66535;52.370;4.832;2023-10-19T03:03:22;44.08;41.58;52.80;;
69670;Laerm;66535;52.370;4.832;2023-10-19T03:03:54;44.31;41.85;59.13;;
69670;Laerm;66535;52.370;4.832;2023-10-19T03:04:30;44.78;41.04;62.33;;
69670;Laerm;66535;52.370;4.832;2023-10-19T03:05:02;44.51;42.12;53.21;;
69670;Laerm;66535;52.370;4.832;2023-10-19T03:05:42;44.98;42.79;53.87;;
69670;Laerm;66535;52.370;4.832;2023-10-19T03:06:13;44.48;40.84;59.32;;
69670;Laerm;66535;52.370;4.832;2023-10-19T03:06:44;44.01;41.95;52.08;;
69670;Laerm;66535;52.370;4.832;2023-10-19T03:07:17;44.23;41.77;55.36;;
69670;Laerm;66535;52.370;4.832;2023-10-19T03:07:49;44.06;41.28;56.61;;
69670;Laerm;66535;52.370;4.832;2023-10-19T03:08:20;43.78;41.85;52.67;;
69670;Laerm;66535;52.370;4.832;2023-10-19T03:08:51;45.22;41.59;56.81;;
69670;Laerm;66535;52.370;4.832;2023-10-19T03:09:28;49.50;44.02;57.31;;
69670;Laerm;66535;52.370;4.832;2023-10-19T03:10:02;57.29;42.66;65.56;;
69670;Laerm;66535;52.370;4.832;2023-10-19T03:10:36;44.08;41.56;57.17;;